Time;durP1;ratioP1;P1;durP2;ratioP2;P2;SDS_P1;SDS_P2;PMS_P1;PMS_P2;Temp;Humidity;BMP_temperature;BMP_pressure;BME280_temperature;BME280_humidity;BME280_pressure;Samples;Min_cycle;Max_cycle;Signal;HPM_P1;HPM_P2
2023/02/04 00:03:54;;;;;;;15.82;8.90;;;;;;;0.34;68.04;94597.84;5144921;27;20393;-73
2023/02/04 00:06:19;;;;;;;13.75;8.27;;;;;;;0.29;67.39;94553.78;5145817;27;20046;-74
2023/02/04 00:08:45;;;;;;;12.90;8.93;;;;;;;0.51;68.30;94598.81;5123552;27;20023;-74
2023/02/04 00:11:10;;;;;;;13.30;7.82;;;;;;;0.41;68.47;94594.09;5123085;28;20012;-74
2023/02/04 00:13:35;;;;;;;12.73;7.72;;;;;;;0.26;69.89;94592.28;5105652;28;20167;-74
2023/02/04 00:16:01;;;;;;;12.38;8.05;;;;;;;-0.12;72.08;94587.16;5123532;28;20515;-73
2023/02/04 00:18:27;;;;;;;11.68;7.05;;;;;;;-0.01;72.27;94586.69;5106928;28;20023;-73
2023/02/04 00:20:53;;;;;;;11.27;6.68;;;;;;;-0.15;72.68;94571.16;5103281;28;20031;-73
2023/02/04 00:23:18;;;;;;;10.10;6.70;;;;;;;-0.19;73.31;94583.25;5088618;28;20716;-73
2023/02/04 00:25:44;;;;;;;9.40;6.53;;;;;;;-0.28;73.74;94593.84;5106530;28;20020;-74
2023/02/04 00:28:09;;;;;;;10.07;6.22;;;;;;;-0.52;74.72;94568.50;5106611;28;20040;-73
2023/02/04 00:30:34;;;;;;;10.52;6.75;;;;;;;-0.62;75.48;94585.09;5121935;27;20053;-73
2023/02/04 00:33:00;;;;;;;16.02;8.63;;;;;;;-0.58;75.70;94586.66;5088867;28;20043;-73
2023/02/04 00:35:26;;;;;;;13.18;7.57;;;;;;;-0.48;74.87;94582.78;5108980;28;20088;-73
2023/02/04 00:37:51;;;;;;;15.23;9.60;;;;;;;-0.42;74.80;94588.50;5108199;28;20519;-74
2023/02/04 00:40:17;;;;;;;11.82;7.72;;;;;;;-0.37;74.78;94584.03;5125174;28;20019;-73
2023/02/04 00:42:42;;;;;;;11.75;7.22;;;;;;;-0.20;74.07;94594.34;5125226;27;20035;-73
2023/02/04 00:45:08;;;;;;;10.75;7.00;;;;;;;-0.37;74.10;94578.94;5124485;28;20038;-73
2023/02/04 00:47:34;;;;;;;10.82;6.18;;;;;;;-0.44;74.71;94580.13;5108526;28;20111;-73
2023/02/04 00:49:59;;;;;;;10.60;6.40;;;;;;;-0.51;75.29;94566.78;5125339;28;20035;-73
2023/02/04 00:52:25;;;;;;;11.18;6.63;;;;;;;-0.64;75.29;94571.59;5105633;28;20049;-73
2023/02/04 00:54:50;;;;;;;12.63;6.72;;;;;;;-0.54;75.54;94572.84;5143371;27;20488;-73
2023/02/04 00:57:15;;;;;;;10.07;6.43;;;;;;;-0.48;74.96;94581.97;5109492;28;20032;-73
2023/02/04 00:59:41;;;;;;;11.50;6.18;;;;;;;-0.53;75.19;94582.19;5123261;28;20051;-74
2023/02/04 01:02:06;;;;;;;11.98;7.22;;;;;;;-0.61;75.14;94575.72;5108307;28;20070;-74
2023/02/04 01:04:32;;;;;;;11.27;7.25;;;;;;;-0.73;74.59;94561.78;5094443;28;20197;-73
2023/02/04 01:06:57;;;;;;;14.95;7.60;;;;;;;-0.68;74.37;94555.56;5111498;28;20028;-73
2023/02/04 01:09:23;;;;;;;12.70;7.15;;;;;;;-0.90;73.86;94514.84;5109183;28;20032;-74
2023/02/04 01:11:48;;;;;;;11.90;6.95;;;;;;;-0.63;73.57;94542.63;5095447;28;20027;-73
2023/02/04 01:14:14;;;;;;;10.68;6.88;;;;;;;-0.82;74.10;94527.28;5113896;28;20458;-74
2023/02/04 01:16:39;;;;;;;10.27;7.05;;;;;;;-0.84;74.07;94538.44;5078338;28;20028;-74
2023/02/04 01:19:05;;;;;;;12.20;7.07;;;;;;;-0.69;73.55;94522.50;5112172;28;20058;-74
2023/02/04 01:21:30;;;;;;;11.90;7.07;;;;;;;-0.63;74.00;94532.44;5112480;28;20040;-74
2023/02/04 01:23:56;;;;;;;12.15;7.03;;;;;;;-0.47;73.36;94517.28;5112432;28;20409;-74
2023/02/04 01:26:21;;;;;;;11.85;6.88;;;;;;;-0.43;72.53;94516.22;5111823;28;20413;-74
2023/02/04 01:28:46;;;;;;;10.27;6.65;;;;;;;-0.56;73.14;94508.28;5111837;28;20024;-74
2023/02/04 01:31:12;;;;;;;10.73;6.38;;;;;;;-0.51;73.22;94501.25;5091403;28;20031;-74
2023/02/04 01:33:38;;;;;;;11.73;7.03;;;;;;;-0.37;73.09;94502.38;5091945;28;20034;-74
2023/02/04 01:36:03;;;;;;;13.80;7.57;;;;;;;-0.30;72.77;94503.75;5111936;28;20046;-74
2023/02/04 01:38:29;;;;;;;14.85;8.45;;;;;;;-0.15;72.17;94494.56;5113222;28;20513;-74
2023/02/04 01:40:54;;;;;;;12.18;7.70;;;;;;;-0.09;72.00;94487.44;5111709;28;20028;-74
2023/02/04 01:43:21;;;;;;;15.75;8.35;;;;;;;-0.02;71.88;94496.47;5094577;28;20039;-74
2023/02/04 01:45:47;;;;;;;13.68;8.23;;;;;;;0.09;70.90;94485.75;5129479;27;20496;-74
2023/02/04 01:48:18;;;;;;;12.98;7.50;;;;;;;0.15;70.93;94482.91;5111571;28;20054;-74
2023/02/04 01:50:47;;;;;;;15.75;10.25;;;;;;;0.34;70.61;94482.03;5095657;28;20027;-74
2023/02/04 01:53:15;;;;;;;12.32;8.15;;;;;;;0.35;70.08;94471.72;5110751;28;20095;-74
2023/02/04 01:55:40;;;;;;;13.40;7.85;;;;;;;0.25;70.28;94478.16;5094720;28;20035;-74
2023/02/04 01:58:08;;;;;;;13.05;7.78;;;;;;;0.38;70.07;94481.78;5094878;28;20120;-73
2023/02/04 02:00:34;;;;;;;13.50;8.07;;;;;;;0.23;70.17;94472.31;5094320;28;20407;-73
2023/02/04 02:02:59;;;;;;;11.93;8.00;;;;;;;0.42;69.20;94469.72;5094196;28;20518;-74
2023/02/04 02:05:32;;;;;;;15.13;8.68;;;;;;;0.46;69.37;94468.66;5128996;27;20023;-74
2023/02/04 02:07:57;;;;;;;12.90;8.15;;;;;;;0.52;69.18;94465.78;5095733;28;20027;-74
2023/02/04 02:10:23;;;;;;;11.88;7.47;;;;;;;0.43;69.32;94461.97;5094295;28;20027;-74
2023/02/04 02:12:49;;;;;;;16.60;8.57;;;;;;;0.41;69.42;94453.53;5111513;28;20046;-74
2023/02/04 02:15:14;;;;;;;20.27;9.07;;;;;;;0.52;69.63;94449.63;5110457;28;20027;-74
2023/02/04 02:17:40;;;;;;;19.27;12.90;;;;;;;0.68;68.79;94453.09;5091158;28;20514;-74
2023/02/04 02:20:06;;;;;;;17.48;10.10;;;;;;;0.56;69.18;94446.03;5094784;28;20042;-74
2023/02/04 02:22:41;;;;;;;18.25;9.75;;;;;;;0.56;69.53;94425.59;5094386;28;20400;-74
2023/02/04 02:25:09;;;;;;;15.65;8.15;;;;;;;0.63;68.63;94434.59;5093850;28;20122;-74
2023/02/04 02:27:34;;;;;;;18.27;10.70;;;;;;;0.63;68.80;94439.69;5094576;28;20553;-74
2023/02/04 02:30:00;;;;;;;19.27;11.10;;;;;;;0.54;69.42;94423.09;5128645;27;20040;-74
2023/02/04 02:32:25;;;;;;;17.40;10.65;;;;;;;0.54;69.28;94428.22;5108606;27;20516;-75
2023/02/04 02:34:51;;;;;;;17.85;10.13;;;;;;;0.50;69.31;94402.88;5108105;28;20412;-75
2023/02/04 02:37:16;;;;;;;15.20;9.90;;;;;;;0.39;69.59;94394.03;5090767;28;20525;-74
2023/02/04 02:39:42;;;;;;;15.23;9.55;;;;;;;0.42;69.15;94375.97;5110196;28;20028;-75
2023/02/04 02:42:08;;;;;;;14.27;9.15;;;;;;;0.40;69.11;94370.09;5111084;28;20084;-74
2023/02/04 02:44:34;;;;;;;14.43;9.60;;;;;;;0.43;68.96;94375.06;5107209;28;20043;-73
2023/02/04 02:46:59;;;;;;;22.38;11.27;;;;;;;0.33;68.90;94373.03;5089224;28;20028;-73
2023/02/04 02:49:25;;;;;;;11.10;7.78;;;;;;;0.29;68.67;94359.59;5110197;28;20045;-73
2023/02/04 02:51:50;;;;;;;10.90;6.93;;;;;;;0.31;68.67;94341.66;5090338;28;20043;-74
2023/02/04 02:54:34;;;;;;;10.15;7.35;;;;;;;0.20;68.77;94337.91;5102262;28;20027;-75
2023/02/04 02:56:59;;;;;;;10.82;7.05;;;;;;;0.30;68.63;94365.53;5110364;28;20500;-75
2023/02/04 02:59:25;;;;;;;12.48;7.53;;;;;;;0.26;68.69;94359.75;5110229;28;20028;-74
2023/02/04 03:01:56;;;;;;;11.00;6.45;;;;;;;0.07;69.31;94353.91;5076486;28;20505;-74
2023/02/04 03:04:22;;;;;;;11.55;6.50;;;;;;;-0.03;68.65;94340.75;5094082;28;20106;-74
2023/02/04 03:06:47;;;;;;;10.98;6.90;;;;;;;0.04;68.32;94359.16;5093438;28;20040;-74
2023/02/04 03:09:13;;;;;;;10.40;6.95;;;;;;;-0.06;67.80;94359.59;5127411;27;20081;-74
2023/02/04 03:11:38;;;;;;;9.48;6.15;;;;;;;-0.16;67.84;94358.41;5075972;28;20035;-74
2023/02/04 03:14:04;;;;;;;10.65;5.80;;;;;;;-0.27;68.64;94345.34;5110376;28;20092;-74
2023/02/04 03:16:31;;;;;;;9.35;6.07;;;;;;;-0.33;68.68;94374.53;5093181;28;20032;-74
2023/02/04 03:19:00;;;;;;;13.85;7.00;;;;;;;-0.64;70.84;94354.72;5093123;28;20019;-74
2023/02/04 03:21:26;;;;;;;8.85;5.35;;;;;;;-0.80;72.30;94386.94;5094001;28;20319;-74
2023/02/04 03:23:55;;;;;;;8.65;5.35;;;;;;;-0.63;72.17;94374.25;5110102;28;20023;-74
2023/02/04 03:26:23;;;;;;;10.07;5.60;;;;;;;-0.42;71.69;94372.38;5110184;28;20397;-74
2023/02/04 03:28:49;;;;;;;7.72;5.32;;;;;;;-0.50;71.90;94367.66;5109822;28;20028;-74
2023/02/04 03:31:14;;;;;;;7.53;5.55;;;;;;;-0.37;71.61;94369.63;5110086;28;20028;-74
2023/02/04 03:33:41;;;;;;;7.95;5.32;;;;;;;-0.27;71.28;94368.31;5090004;28;20039;-74
2023/02/04 03:36:07;;;;;;;8.95;5.57;;;;;;;-0.14;71.25;94341.28;5109453;28;20400;-74
2023/02/04 03:38:33;;;;;;;8.05;4.85;;;;;;;-0.09;71.12;94336.75;5125133;27;20031;-74
2023/02/04 03:40:58;;;;;;;12.20;6.93;;;;;;;0.04;70.88;94348.94;5107842;28;20035;-74
2023/02/04 03:43:24;;;;;;;81.13;24.55;;;;;;;0.16;70.23;94349.16;5108024;28;20032;-75
2023/02/04 03:45:49;;;;;;;77.55;24.17;;;;;;;0.24;70.26;94342.84;5107925;28;20020;-74
2023/02/04 03:48:15;;;;;;;48.72;20.30;;;;;;;0.19;71.06;94348.19;5107815;28;20507;-74
2023/02/04 03:50:40;;;;;;;39.78;17.45;;;;;;;0.29;70.37;94328.94;5106964;28;20028;-75
2023/02/04 03:53:06;;;;;;;26.40;12.57;;;;;;;0.48;69.75;94338.25;5109724;28;20135;-75
2023/02/04 03:55:31;;;;;;;22.83;9.68;;;;;;;0.52;69.44;94335.44;5106478;28;20425;-75
2023/02/04 03:57:57;;;;;;;15.20;7.88;;;;;;;0.48;69.44;94326.28;5099296;28;20100;-75
2023/02/04 04:00:22;;;;;;;13.35;7.80;;;;;;;0.60;68.74;94329.94;5092709;28;20027;-75
2023/02/04 04:02:48;;;;;;;13.60;6.93;;;;;;;0.64;68.97;94313.50;5109277;28;20057;-76
2023/02/04 04:05:14;;;;;;;12.07;6.47;;;;;;;0.70;68.57;94303.00;5092375;28;20024;-75
2023/02/04 04:07:40;;;;;;;12.40;6.88;;;;;;;0.66;68.35;94298.94;5089413;28;20032;-75
2023/02/04 04:10:05;;;;;;;12.35;7.35;;;;;;;0.60;68.84;94278.81;5074286;28;20027;-75
2023/02/04 04:12:31;;;;;;;10.68;6.03;;;;;;;0.64;68.92;94281.13;5092884;28;20103;-75
2023/02/04 04:14:56;;;;;;;10.63;6.57;;;;;;;0.69;69.25;94268.09;5092722;28;20119;-75
2023/02/04 04:17:22;;;;;;;12.27;6.57;;;;;;;0.79;68.85;94274.38;5110317;28;20073;-75
2023/02/04 04:19:48;;;;;;;20.45;8.77;;;;;;;0.89;68.23;94272.13;5109588;28;20030;-75
2023/02/04 04:22:14;;;;;;;44.85;15.90;;;;;;;0.77;68.33;94272.78;5092702;28;20288;-75
2023/02/04 04:24:39;;;;;;;36.97;13.20;;;;;;;0.61;68.81;94267.66;5092542;28;20034;-75
2023/02/04 04:27:05;;;;;;;26.05;11.60;;;;;;;0.69;68.39;94273.19;5092932;28;20413;-75
2023/02/04 04:29:30;;;;;;;24.02;10.32;;;;;;;0.68;68.38;94263.88;5092427;28;20027;-75
2023/02/04 04:31:56;;;;;;;20.17;10.50;;;;;;;0.64;68.37;94278.56;5106222;28;20425;-75
2023/02/04 04:34:21;;;;;;;22.27;10.80;;;;;;;0.70;68.29;94289.34;5092679;28;20088;-74
2023/02/04 04:36:46;;;;;;;33.40;18.05;;;;;;;0.72;69.13;94279.88;5109790;28;20035;-74
2023/02/04 04:39:12;;;;;;;24.83;13.98;;;;;;;0.67;68.68;94298.03;5111888;28;20019;-75
2023/02/04 04:41:37;;;;;;;21.48;12.57;;;;;;;0.64;69.07;94293.91;5079683;28;20043;-75
2023/02/04 04:44:03;;;;;;;20.45;11.77;;;;;;;0.75;68.32;94301.00;5095682;28;20019;-75
2023/02/04 04:46:28;;;;;;;23.27;11.35;;;;;;;0.78;68.75;94297.44;5096064;28;20036;-75
2023/02/04 04:48:54;;;;;;;23.60;13.30;;;;;;;0.76;68.27;94299.28;5096058;28;20028;-75
2023/02/04 04:51:19;;;;;;;22.20;10.98;;;;;;;0.77;68.31;94322.19;5112737;28;20063;-74
2023/02/04 04:53:45;;;;;;;17.27;10.45;;;;;;;0.78;68.16;94313.63;5112901;28;20040;-75
2023/02/04 04:56:10;;;;;;;18.80;9.80;;;;;;;0.81;68.73;94325.44;5113306;28;20477;-75
2023/02/04 04:58:36;;;;;;;15.63;8.95;;;;;;;0.77;68.98;94321.38;5112567;28;20036;-75
2023/02/04 05:01:01;;;;;;;17.10;8.85;;;;;;;0.72;68.41;94293.47;5112380;28;20019;-74
2023/02/04 05:03:27;;;;;;;13.43;7.80;;;;;;;0.80;68.27;94319.47;5129550;27;20047;-75
2023/02/04 05:05:52;;;;;;;10.27;6.40;;;;;;;0.63;68.77;94301.66;5112738;28;20500;-74
2023/02/04 05:08:19;;;;;;;11.05;5.05;;;;;;;0.75;68.68;94325.75;5095199;28;20043;-74
2023/02/04 05:10:45;;;;;;;10.60;7.97;;;;;;;0.48;69.65;94317.78;5112361;28;20027;-74
2023/02/04 05:13:10;;;;;;;17.52;11.57;;;;;;;0.53;70.10;94331.13;5095354;28;20097;-74
2023/02/04 05:15:36;;;;;;;15.27;9.85;;;;;;;0.65;70.34;94339.00;5111841;28;20023;-74
2023/02/04 05:18:01;;;;;;;8.50;5.07;;;;;;;0.47;71.11;94316.13;5111521;28;20035;-75
2023/02/04 05:20:27;;;;;;;6.47;4.53;;;;;;;0.31;71.93;94322.03;5112403;28;20032;-74
2023/02/04 05:22:52;;;;;;;9.60;4.50;;;;;;;0.31;72.04;94316.91;5094570;28;20050;-74
2023/02/04 05:25:18;;;;;;;11.25;5.22;;;;;;;0.21;73.09;94325.94;5112096;28;20024;-74
2023/02/04 05:27:43;;;;;;;7.80;4.38;;;;;;;0.12;73.87;94346.84;5112268;28;20104;-74
2023/02/04 05:30:10;;;;;;;7.82;4.60;;;;;;;0.12;73.87;94340.00;5092270;28;20538;-74
2023/02/04 05:32:35;;;;;;;7.10;4.05;;;;;;;0.16;74.14;94343.22;5097958;28;20077;-73
2023/02/04 05:35:01;;;;;;;7.90;4.53;;;;;;;0.08;74.12;94341.03;5112436;28;20020;-74
2023/02/04 05:37:26;;;;;;;8.30;4.55;;;;;;;0.20;74.39;94360.06;5078604;28;20061;-74
2023/02/04 05:39:51;;;;;;;13.02;6.63;;;;;;;0.31;74.13;94352.69;5113624;28;20026;-74
2023/02/04 05:42:17;;;;;;;8.75;3.80;;;;;;;0.44;74.04;94363.91;5095113;28;20028;-74
2023/02/04 05:44:42;;;;;;;8.52;4.28;;;;;;;0.49;74.09;94368.81;5112178;28;20034;-74
2023/02/04 05:47:08;;;;;;;5.20;4.03;;;;;;;0.50;74.32;94379.84;5112118;28;20393;-74
2023/02/04 05:49:33;;;;;;;6.00;4.05;;;;;;;0.49;75.09;94396.94;5112702;27;20023;-74
2023/02/04 05:51:59;;;;;;;8.95;4.88;;;;;;;0.52;75.75;94399.34;5094808;28;20135;-74
2023/02/04 05:54:24;;;;;;;6.65;3.90;;;;;;;0.66;75.55;94388.41;5094722;28;20477;-74
2023/02/04 05:56:50;;;;;;;7.85;4.30;;;;;;;0.83;75.24;94379.88;5113237;28;20031;-74
2023/02/04 05:59:16;;;;;;;16.33;8.38;;;;;;;0.87;75.32;94396.72;5094694;28;20569;-74
2023/02/04 06:01:42;;;;;;;13.05;7.75;;;;;;;0.82;75.67;94347.53;5128096;27;20031;-74
2023/02/04 06:04:07;;;;;;;7.43;4.85;;;;;;;1.15;74.03;94372.25;5110886;28;20136;-74
2023/02/04 06:06:32;;;;;;;7.22;3.85;;;;;;;1.24;72.02;94354.66;5091117;28;20036;-74
2023/02/04 06:08:58;;;;;;;5.40;3.70;;;;;;;1.30;71.63;94361.19;5077533;28;20466;-75
2023/02/04 06:11:23;;;;;;;5.45;4.20;;;;;;;1.07;72.11;94339.41;5111743;28;20027;-75
2023/02/04 06:13:49;;;;;;;6.18;3.13;;;;;;;1.29;69.89;94345.00;5112488;28;20035;-75
2023/02/04 06:16:14;;;;;;;3.95;2.47;;;;;;;1.40;69.43;94353.84;5107158;28;20057;-74
2023/02/04 06:18:40;;;;;;;3.42;2.35;;;;;;;1.50;68.90;94349.88;5087875;28;20058;-75
2023/02/04 06:21:05;;;;;;;4.97;2.55;;;;;;;1.67;67.09;94359.19;5111693;28;20023;-74
2023/02/04 06:23:33;;;;;;;5.25;2.65;;;;;;;1.66;65.88;94353.25;5112784;28;20039;-74
2023/02/04 06:25:58;;;;;;;3.05;1.88;;;;;;;1.78;63.93;94364.53;5112767;28;20028;-73
2023/02/04 06:28:24;;;;;;;2.30;1.60;;;;;;;1.81;62.86;94351.56;5113044;28;20066;-73
2023/02/04 06:30:49;;;;;;;6.22;2.75;;;;;;;1.99;62.75;94363.34;5094299;28;20023;-74
2023/02/04 06:33:15;;;;;;;5.20;2.45;;;;;;;2.11;63.09;94366.94;5089926;28;20036;-72
2023/02/04 06:35:40;;;;;;;5.78;2.67;;;;;;;2.18;62.44;94378.50;5074092;28;20031;-72
2023/02/04 06:38:06;;;;;;;6.70;2.20;;;;;;;2.22;61.43;94356.06;5109374;28;20043;-73
2023/02/04 06:40:31;;;;;;;4.32;2.30;;;;;;;2.21;61.66;94375.75;5111223;28;20024;-73
2023/02/04 06:42:57;;;;;;;4.60;2.25;;;;;;;2.30;61.72;94365.91;5111416;28;20035;-73
2023/02/04 06:45:22;;;;;;;4.60;1.80;;;;;;;2.43;60.15;94364.28;5111741;28;20038;-74
2023/02/04 06:47:48;;;;;;;3.72;2.30;;;;;;;2.48;59.31;94359.72;5108435;28;20039;-74
2023/02/04 06:50:17;;;;;;;3.90;2.13;;;;;;;2.55;59.33;94344.78;5108785;28;20031;-74
2023/02/04 06:52:47;;;;;;;3.50;2.28;;;;;;;2.58;58.67;94365.13;5109913;28;20032;-74
2023/02/04 06:55:13;;;;;;;4.78;2.50;;;;;;;2.73;58.54;94373.63;5076936;28;20028;-73
2023/02/04 06:57:38;;;;;;;4.93;2.45;;;;;;;2.86;57.89;94369.44;5124301;27;20028;-74
2023/02/04 07:00:05;;;;;;;5.50;2.88;;;;;;;2.77;58.60;94364.88;5084303;28;20036;-73
2023/02/04 07:02:31;;;;;;;3.53;2.10;;;;;;;2.86;57.71;94360.00;5076093;28;20051;-74
2023/02/04 07:04:59;;;;;;;5.00;2.58;;;;;;;2.94;57.65;94351.03;5110719;28;20027;-74
2023/02/04 07:07:24;;;;;;;5.72;2.40;;;;;;;3.06;56.99;94350.28;5093588;28;20421;-73
2023/02/04 07:09:50;;;;;;;2.85;1.83;;;;;;;3.10;57.53;94360.25;5110623;28;20023;-73
2023/02/04 07:12:15;;;;;;;5.50;2.65;;;;;;;3.10;56.87;94350.00;5110462;28;20469;-73
2023/02/04 07:14:41;;;;;;;8.77;5.20;;;;;;;3.01;58.36;94365.13;5090937;28;20035;-74
2023/02/04 07:17:06;;;;;;;3.63;2.30;;;;;;;3.16;57.15;94360.81;5107290;28;20032;-73
2023/02/04 07:19:32;;;;;;;6.78;2.85;;;;;;;3.21;57.29;94369.06;5107177;28;20024;-73
2023/02/04 07:21:58;;;;;;;3.58;2.15;;;;;;;3.23;56.95;94356.94;5090180;28;20040;-76
2023/02/04 07:24:23;;;;;;;4.82;2.40;;;;;;;3.38;56.99;94361.16;5089226;28;20119;-75
2023/02/04 07:26:49;;;;;;;4.07;2.90;;;;;;;3.42;57.17;94357.44;5089075;28;20056;-75
2023/02/04 07:29:15;;;;;;;5.18;2.50;;;;;;;3.55;56.56;94353.22;5089338;28;20472;-75
2023/02/04 07:31:40;;;;;;;8.27;2.53;;;;;;;3.39;56.81;94355.06;5106262;28;20404;-74
2023/02/04 07:34:08;;;;;;;3.28;1.75;;;;;;;3.46;56.38;94353.78;5088455;28;20532;-75
2023/02/04 07:36:34;;;;;;;2.85;1.70;;;;;;;3.50;56.15;94339.81;5104790;28;20393;-75
2023/02/04 07:38:59;;;;;;;5.03;2.33;;;;;;;3.40;56.47;94343.06;5088626;28;20023;-74
2023/02/04 07:41:25;;;;;;;4.10;3.00;;;;;;;3.60;56.19;94342.66;5089324;28;20610;-76
2023/02/04 07:43:50;;;;;;;3.65;2.10;;;;;;;3.55;56.15;94336.97;5073618;28;20424;-75
2023/02/04 07:46:16;;;;;;;2.72;2.20;;;;;;;4.06;54.77;94342.28;5109023;28;20111;-75
2023/02/04 07:48:41;;;;;;;4.15;2.53;;;;;;;4.20;54.48;94338.81;5088648;28;20607;-76
2023/02/04 07:51:07;;;;;;;4.22;2.78;;;;;;;4.20;54.83;94349.09;5084469;28;20551;-76
2023/02/04 07:53:32;;;;;;;3.75;1.75;;;;;;;4.32;54.78;94342.31;5091300;28;20059;-77
2023/02/04 07:55:57;;;;;;;3.22;2.15;;;;;;;4.20;54.98;94337.06;5092391;28;20489;-73
2023/02/04 07:58:23;;;;;;;5.07;2.50;;;;;;;4.22;55.23;94322.34;5109580;28;20027;-75
2023/02/04 08:00:48;;;;;;;4.68;2.95;;;;;;;4.22;54.14;94303.53;5090385;28;20027;-72
2023/02/04 08:03:14;;;;;;;7.55;4.35;;;;;;;4.22;54.59;94300.97;5111534;28;20440;-74
2023/02/04 08:05:39;;;;;;;7.95;3.40;;;;;;;4.27;55.07;94327.22;5109992;28;20054;-76
2023/02/04 08:08:05;;;;;;;4.95;2.47;;;;;;;4.32;55.44;94329.47;5109603;28;20028;-74
2023/02/04 08:10:30;;;;;;;4.97;2.92;;;;;;;4.41;54.54;94326.31;5110333;28;20323;-76
2023/02/04 08:12:56;;;;;;;5.68;1.90;;;;;;;4.45;53.95;94325.16;5107326;28;20198;-73
2023/02/04 08:15:21;;;;;;;5.10;2.47;;;;;;;4.50;54.05;94319.72;5113482;28;20027;-73
2023/02/04 08:17:47;;;;;;;3.67;2.47;;;;;;;4.41;54.98;94311.69;5092918;28;20477;-76
2023/02/04 08:20:12;;;;;;;5.50;3.13;;;;;;;4.45;54.53;94322.59;5106982;27;20034;-76
2023/02/04 08:22:38;;;;;;;6.32;3.50;;;;;;;4.46;54.90;94335.34;5109258;28;20101;-75
2023/02/04 08:25:04;;;;;;;4.78;2.25;;;;;;;4.52;54.69;94312.72;5123992;27;20082;-76
2023/02/04 08:27:30;;;;;;;3.80;2.20;;;;;;;4.61;54.30;94330.94;5093214;28;20613;-76
2023/02/04 08:29:55;;;;;;;4.28;2.58;;;;;;;4.57;54.73;94321.78;5093676;28;20032;-76
2023/02/04 08:32:20;;;;;;;8.98;5.30;;;;;;;4.53;55.22;94322.91;5109992;28;20027;-76
2023/02/04 08:34:47;;;;;;;9.43;4.63;;;;;;;4.45;55.49;94307.97;5109367;28;20042;-76
2023/02/04 08:37:14;;;;;;;6.07;4.03;;;;;;;4.57;55.65;94316.63;5108866;28;20479;-79
2023/02/04 08:39:44;;;;;;;4.63;3.08;;;;;;;4.71;55.29;94323.44;5090262;28;20024;-75
2023/02/04 08:42:10;;;;;;;7.17;4.70;;;;;;;4.72;55.33;94314.78;5111104;28;20047;-76
2023/02/04 08:44:35;;;;;;;3.92;2.55;;;;;;;4.75;54.23;94318.88;5110756;28;20040;-74
2023/02/04 08:47:01;;;;;;;4.85;2.33;;;;;;;4.83;54.02;94309.72;5109674;28;20481;-79
2023/02/04 08:49:26;;;;;;;6.13;4.13;;;;;;;4.75;54.75;94299.13;5105412;28;20036;-76
2023/02/04 08:51:52;;;;;;;4.35;3.28;;;;;;;4.92;54.54;94314.22;5076183;28;20050;-75
2023/02/04 08:54:17;;;;;;;18.98;9.77;;;;;;;5.00;53.90;94310.31;5076028;28;20024;-78
2023/02/04 08:56:43;;;;;;;7.20;4.95;;;;;;;4.75;53.26;94270.00;5110686;28;20035;-78
2023/02/04 08:59:08;;;;;;;5.93;3.28;;;;;;;4.97;53.53;94326.78;5093547;28;20106;-75
2023/02/04 09:01:33;;;;;;;3.97;2.80;;;;;;;4.79;54.46;94328.88;5111849;28;20425;-75
2023/02/04 09:03:59;;;;;;;7.32;3.67;;;;;;;4.75;54.80;94324.84;5094006;28;20031;-73
2023/02/04 09:06:24;;;;;;;5.20;3.45;;;;;;;4.68;54.53;94328.75;5109217;28;20031;-74
2023/02/04 09:08:50;;;;;;;3.95;2.70;;;;;;;4.61;55.16;94312.91;5106891;28;20032;-74
2023/02/04 09:11:15;;;;;;;3.70;2.42;;;;;;;4.69;54.63;94322.69;5109626;28;20476;-76
2023/02/04 09:13:41;;;;;;;2.00;1.20;;;;;;;4.68;53.95;94318.47;5089770;28;20023;-76
2023/02/04 09:16:07;;;;;;;1.77;1.00;;;;;;;4.59;53.99;94321.66;5109640;27;20028;-77
2023/02/04 09:18:32;;;;;;;4.35;3.45;;;;;;;4.63;54.96;94310.25;5073632;28;20116;-77
2023/02/04 09:20:58;;;;;;;5.70;4.50;;;;;;;4.62;53.55;94306.00;5110487;28;20081;-76
2023/02/04 09:23:23;;;;;;;4.53;3.15;;;;;;;4.70;52.50;94299.41;5107322;28;20479;-76
2023/02/04 09:25:49;;;;;;;4.93;2.58;;;;;;;4.73;53.23;94310.44;5109324;28;20130;-75
2023/02/04 09:28:15;;;;;;;6.22;4.65;;;;;;;4.76;53.19;94310.22;5089490;28;20039;-75
2023/02/04 09:30:42;;;;;;;5.95;4.30;;;;;;;4.77;53.25;94305.00;5106629;28;20024;-76
2023/02/04 09:33:08;;;;;;;7.60;4.53;;;;;;;4.63;53.55;94287.09;5087121;28;20152;-76
2023/02/04 09:35:33;;;;;;;11.65;8.13;;;;;;;4.78;52.72;94292.94;5091387;28;20032;-75
2023/02/04 09:37:59;;;;;;;8.93;6.65;;;;;;;4.89;52.75;94293.84;5113933;27;20076;-76
2023/02/04 09:40:25;;;;;;;59.28;26.83;;;;;;;4.87;52.37;94300.84;5100254;27;20031;-73
2023/02/04 09:42:51;;;;;;;15.95;9.02;;;;;;;4.83;52.27;94286.56;5092176;28;20036;-74
2023/02/04 09:45:18;;;;;;;32.42;16.83;;;;;;;4.95;52.90;94300.31;5089628;28;20039;-74
2023/02/04 09:47:43;;;;;;;18.48;10.20;;;;;;;4.80;54.22;94283.38;5110640;27;20036;-77
2023/02/04 09:50:15;;;;;;;13.13;7.43;;;;;;;4.88;55.26;94301.69;5109096;28;20036;-76
2023/02/04 09:52:41;;;;;;;4.45;2.55;;;;;;;4.80;55.52;94271.31;5109759;28;20039;-76
2023/02/04 09:55:14;;;;;;;8.02;6.43;;;;;;;4.86;56.12;94286.34;5092853;28;20480;-75
2023/02/04 09:57:42;;;;;;;3.55;2.20;;;;;;;4.91;56.47;94273.97;5098195;27;20035;-77
2023/02/04 10:00:21;;;;;;;4.13;3.13;;;;;;;4.87;56.20;94277.69;5111666;27;20020;-75
2023/02/04 10:02:47;;;;;;;5.35;3.17;;;;;;;4.80;57.32;94285.94;5109171;28;20062;-80
2023/02/04 10:05:18;;;;;;;6.20;4.18;;;;;;;4.91;56.91;94268.84;5095256;27;20028;-76
2023/02/04 10:07:44;;;;;;;5.95;3.83;;;;;;;4.95;57.63;94261.72;5123318;27;20023;-83
2023/02/04 10:10:17;;;;;;;4.80;3.25;;;;;;;4.95;57.23;94248.03;5090235;28;20046;-78
2023/02/04 10:12:43;;;;;;;4.15;2.97;;;;;;;5.11;56.06;94239.13;5092764;28;20031;-79
2023/02/04 10:15:13;;;;;;;3.15;2.28;;;;;;;4.96;56.10;94232.50;5111024;28;20054;-75
2023/02/04 10:17:38;;;;;;;3.75;2.65;;;;;;;5.21;55.28;94248.75;5106331;28;20031;-78
2023/02/04 10:20:04;;;;;;;8.52;4.72;;;;;;;5.29;54.92;94249.88;5107958;27;20035;-80
2023/02/04 10:22:29;;;;;;;12.00;6.45;;;;;;;5.11;55.45;94243.44;5113862;27;20040;-78
2023/02/04 10:24:55;;;;;;;20.67;11.65;;;;;;;5.00;54.41;94207.34;5108339;28;20027;-78
2023/02/04 10:27:20;;;;;;;7.30;2.78;;;;;;;5.06;54.36;94248.09;5107723;28;20058;-77
2023/02/04 10:29:56;;;;;;;8.65;4.70;;;;;;;5.25;54.53;94239.91;5108091;28;20092;-79
2023/02/04 10:32:32;;;;;;;3.40;1.63;;;;;;;5.13;53.91;94237.25;5106714;28;20110;-75
2023/02/04 10:34:59;;;;;;;2.88;1.92;;;;;;;5.10;54.76;94232.34;5090001;28;20032;-75
2023/02/04 10:37:24;;;;;;;3.38;1.70;;;;;;;5.15;55.24;94235.41;5107877;27;20024;-75
2023/02/04 10:39:50;;;;;;;4.88;3.20;;;;;;;5.18;54.96;94243.84;5073301;28;20027;-77
2023/02/04 10:42:23;;;;;;;13.10;9.40;;;;;;;5.44;53.84;94257.44;5108074;28;20390;-74
2023/02/04 10:44:49;;;;;;;8.07;5.45;;;;;;;5.37;54.14;94223.56;5108323;28;20056;-76
2023/02/04 10:47:19;;;;;;;9.15;7.68;;;;;;;5.48;54.39;94256.28;5105404;28;20036;-77
2023/02/04 10:50:14;;;;;;;2.90;1.77;;;;;;;5.31;55.76;94244.63;5107500;28;20036;-78
2023/02/04 10:52:41;;;;;;;2.67;1.90;;;;;;;5.27;57.36;94228.56;5090743;28;20831;-77
2023/02/04 10:55:10;;;;;;;12.68;5.60;;;;;;;5.21;57.08;94229.00;5093859;28;20028;-77
2023/02/04 10:57:37;;;;;;;15.10;5.75;;;;;;;5.21;57.62;94226.44;5091128;28;20027;-78
2023/02/04 11:00:04;;;;;;;6.05;3.65;;;;;;;5.25;57.23;94230.41;5074732;28;20382;-77
2023/02/04 11:02:44;;;;;;;8.93;3.78;;;;;;;5.13;58.32;94246.75;5102796;28;20086;-78
2023/02/04 11:05:21;;;;;;;6.18;2.90;;;;;;;5.22;57.09;94222.91;5109249;28;20507;-77
2023/02/04 11:07:46;;;;;;;5.13;3.33;;;;;;;5.33;56.94;94217.81;5106374;28;20107;-75
2023/02/04 11:10:23;;;;;;;9.13;3.90;;;;;;;5.43;57.78;94224.88;5108238;28;20059;-76
2023/02/04 11:12:51;;;;;;;11.25;4.38;;;;;;;5.57;56.52;94216.97;5138579;27;20049;-76
2023/02/04 11:16:08;;;;;;;8.98;4.13;;;;;;;5.54;55.43;94210.31;5109972;28;21001;-75
2023/02/04 11:18:48;;;;;;;4.10;2.30;;;;;;;5.56;55.79;94212.75;5040884;28;20226;-76
2023/02/04 11:21:26;;;;;;;9.43;7.70;;;;;;;5.35;56.05;94199.69;5090844;28;20042;-75
2023/02/04 11:24:22;;;;;;;9.13;4.30;;;;;;;5.45;55.83;94213.53;5103101;28;20679;-74
2023/02/04 11:26:48;;;;;;;4.80;2.40;;;;;;;5.63;55.46;94213.97;5092913;28;20043;-73
2023/02/04 11:29:37;;;;;;;3.03;1.75;;;;;;;5.43;55.67;94217.97;5109916;27;20412;-74
2023/02/04 11:32:04;;;;;;;2.60;1.60;;;;;;;5.51;54.61;94214.84;5106865;28;20084;-74
2023/02/04 11:34:30;;;;;;;2.55;1.88;;;;;;;5.42;54.98;94221.47;5106033;28;20110;-74